createdAt,value
2023-03-15T00:02:25.629Z,4.43
2023-03-15T00:05:13.081Z,4.57
2023-03-15T00:07:59.469Z,7.20
2023-03-15T00:10:46.462Z,9.80
2023-03-15T00:13:32.864Z,7.25
2023-03-15T00:16:18.592Z,5.47
2023-03-15T00:19:04.538Z,7.03
2023-03-15T00:21:50.525Z,8.52
2023-03-15T00:24:36.003Z,9.48
2023-03-15T00:27:22.123Z,8.18
2023-03-15T00:30:08.663Z,8.75
2023-03-15T00:32:54.444Z,4.25
2023-03-15T00:35:42.433Z,7.63
2023-03-15T00:38:28.267Z,8.02
2023-03-15T00:41:16.510Z,9.73
2023-03-15T00:44:02.067Z,9.43
2023-03-15T00:46:47.604Z,6.40
2023-03-15T00:49:33.762Z,7.35
2023-03-15T00:52:19.316Z,8.80
2023-03-15T00:55:05.732Z,6.45
2023-03-15T00:57:51.537Z,10.07
2023-03-15T01:00:38.290Z,10.00
2023-03-15T01:03:24.144Z,11.10
2023-03-15T01:06:13.194Z,9.88
2023-03-15T01:08:58.984Z,9.43
2023-03-15T01:11:44.565Z,5.93
2023-03-15T01:14:30.373Z,10.43
2023-03-15T01:17:15.813Z,9.07
2023-03-15T01:20:01.318Z,8.48
2023-03-15T01:22:46.801Z,13.55
2023-03-15T01:25:32.110Z,11.45
2023-03-15T01:28:18.028Z,10.85
2023-03-15T01:31:03.968Z,10.43
2023-03-15T01:33:49.468Z,11.40
2023-03-15T01:36:35.049Z,6.47
2023-03-15T01:39:20.419Z,7.57
2023-03-15T01:42:05.903Z,11.48
2023-03-15T01:45:02.460Z,10.98
2023-03-15T01:47:47.815Z,7.80
2023-03-15T01:50:34.000Z,14.15
2023-03-15T01:53:20.095Z,7.03
2023-03-15T01:56:06.755Z,7.07
2023-03-15T01:58:55.345Z,13.10
2023-03-15T02:01:45.882Z,7.50
2023-03-15T02:04:37.092Z,10.07
2023-03-15T02:07:26.442Z,8.60
2023-03-15T02:10:16.277Z,11.45
2023-03-15T02:13:02.527Z,7.75
2023-03-15T02:15:48.746Z,8.23
2023-03-15T02:18:37.032Z,12.32
2023-03-15T02:21:47.747Z,15.43
2023-03-15T02:24:59.044Z,11.52
2023-03-15T02:27:45.121Z,8.77
2023-03-15T02:30:30.767Z,9.13
2023-03-15T02:33:42.006Z,7.63
2023-03-15T02:36:32.099Z,8.85
2023-03-15T02:39:22.532Z,9.88
2023-03-15T02:42:08.157Z,10.80
2023-03-15T02:44:54.701Z,7.95
2023-03-15T02:47:40.491Z,9.35
2023-03-15T02:50:25.648Z,9.43
2023-03-15T02:53:12.389Z,8.63
2023-03-15T02:55:58.415Z,16.60
2023-03-15T02:58:47.125Z,9.57
2023-03-15T03:01:33.160Z,10.65
2023-03-15T03:04:18.962Z,9.07
2023-03-15T03:07:05.136Z,8.75
2023-03-15T03:09:50.828Z,8.82
2023-03-15T03:12:36.467Z,10.15
2023-03-15T03:15:21.982Z,7.45
2023-03-15T03:18:07.993Z,10.55
2023-03-15T03:20:57.251Z,8.55
2023-03-15T03:23:46.252Z,11.15
2023-03-15T03:26:32.826Z,8.48
2023-03-15T03:29:18.552Z,9.90
2023-03-15T03:32:05.076Z,8.52
2023-03-15T03:34:50.628Z,9.27
2023-03-15T03:37:36.017Z,9.93
2023-03-15T03:40:21.774Z,10.13
2023-03-15T03:43:08.648Z,13.70
2023-03-15T03:45:53.908Z,5.93
2023-03-15T03:48:39.477Z,10.40
2023-03-15T03:51:24.980Z,12.43
2023-03-15T03:54:10.574Z,8.18
2023-03-15T03:56:56.162Z,9.43
2023-03-15T03:59:41.719Z,10.30
2023-03-15T04:02:27.173Z,12.43
2023-03-15T04:05:13.370Z,12.25
2023-03-15T04:07:59.146Z,12.63
2023-03-15T04:10:44.660Z,9.93
2023-03-15T04:13:31.261Z,11.80
2023-03-15T04:16:16.605Z,9.27
2023-03-15T04:19:02.306Z,18.67
2023-03-15T04:21:47.875Z,16.90
2023-03-15T04:24:36.947Z,11.52
2023-03-15T04:27:22.760Z,12.27
2023-03-15T04:30:08.963Z,10.25
2023-03-15T04:33:03.483Z,10.80
2023-03-15T04:35:49.136Z,10.25
2023-03-15T04:38:35.620Z,12.05
2023-03-15T04:41:21.048Z,10.63
2023-03-15T04:44:06.616Z,14.50
2023-03-15T04:46:52.509Z,10.45
2023-03-15T04:49:38.385Z,12.95
2023-03-15T04:52:23.863Z,11.88
2023-03-15T04:55:10.164Z,12.68
2023-03-15T04:57:56.770Z,14.68
2023-03-15T05:00:42.448Z,12.30
2023-03-15T05:03:27.780Z,11.55
2023-03-15T05:06:13.406Z,18.67
2023-03-15T05:08:59.017Z,11.23
2023-03-15T05:11:46.581Z,12.82
2023-03-15T05:14:32.988Z,11.45
2023-03-15T05:17:18.227Z,13.05
2023-03-15T05:20:21.688Z,11.45
2023-03-15T05:23:07.278Z,15.70
2023-03-15T05:25:54.116Z,16.88
2023-03-15T05:28:40.095Z,13.48
2023-03-15T05:31:25.871Z,17.10
2023-03-15T05:34:12.294Z,11.95
2023-03-15T05:36:59.577Z,12.75
2023-03-15T05:39:44.860Z,12.15
2023-03-15T05:42:30.583Z,17.38
2023-03-15T05:45:16.315Z,13.43
2023-03-15T05:48:01.886Z,15.23
2023-03-15T05:50:47.573Z,11.38
2023-03-15T05:53:33.481Z,12.52
2023-03-15T05:56:19.179Z,12.65
2023-03-15T05:59:05.085Z,12.57
2023-03-15T06:01:50.462Z,17.58
2023-03-15T06:04:37.979Z,16.20
2023-03-15T06:07:23.216Z,17.75
2023-03-15T06:10:09.252Z,20.95
2023-03-15T06:12:55.462Z,18.25
2023-03-15T06:15:41.259Z,18.90
2023-03-15T06:18:26.987Z,17.85
2023-03-15T06:21:12.391Z,21.92
2023-03-15T06:23:57.836Z,19.55
2023-03-15T06:26:43.981Z,17.15
2023-03-15T06:29:30.225Z,25.52
2023-03-15T06:32:15.833Z,18.60
2023-03-15T06:35:01.356Z,15.77
2023-03-15T06:37:46.870Z,17.95
2023-03-15T06:40:32.655Z,16.42
2023-03-15T06:43:19.758Z,17.42
2023-03-15T06:46:05.516Z,17.95
2023-03-15T06:48:51.254Z,22.73
2023-03-15T06:51:36.961Z,18.05
2023-03-15T06:54:23.329Z,21.98
2023-03-15T06:57:09.686Z,19.20
2023-03-15T06:59:55.315Z,16.60
2023-03-15T07:02:40.930Z,20.10
2023-03-15T07:05:26.833Z,16.13
2023-03-15T07:08:12.461Z,17.02
2023-03-15T07:10:58.348Z,18.65
2023-03-15T07:13:45.036Z,17.33
2023-03-15T07:16:30.831Z,16.02
2023-03-15T07:19:16.585Z,14.60
2023-03-15T07:22:01.924Z,17.48
2023-03-15T07:24:47.456Z,20.30
2023-03-15T07:27:33.700Z,16.67
2023-03-15T07:30:20.283Z,17.00
2023-03-15T07:33:06.050Z,12.70
2023-03-15T07:35:53.672Z,15.50
2023-03-15T07:38:41.332Z,15.82
2023-03-15T07:41:28.021Z,15.05
2023-03-15T07:44:13.214Z,12.77
2023-03-15T07:46:59.004Z,12.15
2023-03-15T07:49:44.588Z,20.13
2023-03-15T07:52:29.994Z,12.00
2023-03-15T07:55:15.462Z,13.55
2023-03-15T07:58:01.881Z,12.40
2023-03-15T08:00:47.272Z,12.20
2023-03-15T08:03:33.125Z,14.02
2023-03-15T08:06:18.864Z,9.13
2023-03-15T08:09:05.834Z,12.43
2023-03-15T08:11:51.644Z,11.55
2023-03-15T08:14:37.754Z,11.70
2023-03-15T08:17:23.738Z,10.63
2023-03-15T08:20:11.738Z,8.88
2023-03-15T08:22:57.456Z,10.82
2023-03-15T08:25:44.190Z,8.25
2023-03-15T08:28:29.381Z,8.38
2023-03-15T08:31:15.989Z,8.88
2023-03-15T08:34:01.883Z,9.07
2023-03-15T08:36:48.402Z,10.30
2023-03-15T08:39:39.513Z,9.32
2023-03-15T08:42:25.144Z,8.50
2023-03-15T08:45:11.415Z,11.20
2023-03-15T08:47:58.920Z,7.20
2023-03-15T08:50:44.723Z,5.75
2023-03-15T08:53:31.507Z,6.93
2023-03-15T08:56:17.099Z,5.88
2023-03-15T08:59:03.005Z,5.25
2023-03-15T09:01:48.780Z,5.68
2023-03-15T09:04:34.204Z,6.80
2023-03-15T09:07:20.731Z,4.53
2023-03-15T09:10:06.763Z,4.57
2023-03-15T09:12:54.045Z,4.60
2023-03-15T09:15:39.508Z,4.85
2023-03-15T09:18:25.452Z,6.28
2023-03-15T09:21:11.763Z,7.32
2023-03-15T09:23:57.171Z,3.80
2023-03-15T09:26:42.407Z,3.13
2023-03-15T09:29:28.134Z,7.15
2023-03-15T09:32:13.519Z,6.43
2023-03-15T09:34:59.092Z,6.97
2023-03-15T09:37:44.881Z,4.13
2023-03-15T09:40:33.534Z,4.50
2023-03-15T09:43:44.745Z,6.78
2023-03-15T09:46:32.778Z,5.38
2023-03-15T09:49:39.638Z,7.78
2023-03-15T09:52:45.227Z,6.45
2023-03-15T09:55:30.946Z,8.07
2023-03-15T09:58:26.873Z,5.03
2023-03-15T10:01:14.132Z,6.63
2023-03-15T10:04:08.236Z,4.20
2023-03-15T10:06:59.926Z,4.53
2023-03-15T10:09:46.015Z,10.00
2023-03-15T10:12:42.082Z,6.90
2023-03-15T10:15:44.429Z,4.90
2023-03-15T10:18:42.963Z,4.68
2023-03-15T10:21:45.387Z,3.05
2023-03-15T10:24:46.719Z,3.10
2023-03-15T10:27:54.244Z,6.97
2023-03-15T10:30:46.335Z,5.60
2023-03-15T10:33:34.670Z,1.42
2023-03-15T10:36:24.786Z,2.42
2023-03-15T10:39:12.951Z,3.65
2023-03-15T10:41:58.208Z,3.17
2023-03-15T10:44:43.817Z,6.20
2023-03-15T10:47:29.166Z,7.90
2023-03-15T10:50:33.728Z,2.75
2023-03-15T10:53:25.594Z,2.65
2023-03-15T10:56:21.041Z,3.97
2023-03-15T10:59:19.870Z,6.03
2023-03-15T11:02:21.045Z,5.03
2023-03-15T11:05:16.318Z,3.03
2023-03-15T11:08:01.688Z,3.08
2023-03-15T11:10:59.025Z,2.65
2023-03-15T11:13:59.803Z,4.15
2023-03-15T11:16:51.166Z,4.40
2023-03-15T11:19:42.321Z,3.90
2023-03-15T11:22:28.254Z,3.42
2023-03-15T11:25:14.829Z,4.05
2023-03-15T11:28:01.421Z,2.15
2023-03-15T11:30:48.692Z,3.72
2023-03-15T11:33:46.227Z,2.50
2023-03-15T11:36:34.733Z,2.83
2023-03-15T11:39:32.650Z,3.63
2023-03-15T11:42:35.828Z,3.17
2023-03-15T11:45:34.408Z,2.78
2023-03-15T11:48:26.543Z,2.42
2023-03-15T11:51:13.752Z,5.00
2023-03-15T11:54:14.731Z,3.45
2023-03-15T11:57:27.928Z,4.03
2023-03-15T12:00:34.353Z,3.95
2023-03-15T12:03:34.390Z,4.72
2023-03-15T12:06:22.566Z,5.10
2023-03-15T12:09:32.762Z,2.20
2023-03-15T12:12:24.412Z,3.15
2023-03-15T12:15:19.279Z,4.35
2023-03-15T12:18:06.971Z,3.65
2023-03-15T12:21:06.503Z,2.92
2023-03-15T12:24:04.829Z,3.33
2023-03-15T12:26:59.306Z,1.95
2023-03-15T12:29:47.006Z,3.28
2023-03-15T12:32:46.699Z,3.05
2023-03-15T12:35:39.934Z,1.60
2023-03-15T12:38:25.500Z,2.38
2023-03-15T12:41:37.780Z,1.63
2023-03-15T12:44:32.654Z,3.10
2023-03-15T12:47:18.113Z,4.10
2023-03-15T12:50:35.532Z,4.55
2023-03-15T12:53:31.866Z,4.75
2023-03-15T12:56:33.286Z,2.35
2023-03-15T12:59:41.258Z,4.53
2023-03-15T13:02:42.320Z,2.05
2023-03-15T13:05:45.238Z,3.67
2023-03-15T13:08:57.950Z,1.77
2023-03-15T13:12:10.729Z,8.00
2023-03-15T13:15:18.958Z,4.30
2023-03-15T13:18:20.787Z,3.20
2023-03-15T13:21:32.293Z,2.80
2023-03-15T13:24:26.983Z,1.52
2023-03-15T13:27:31.746Z,4.85
2023-03-15T13:30:32.873Z,5.13
2023-03-15T13:33:25.164Z,2.97
2023-03-15T13:36:20.708Z,3.55
2023-03-15T13:39:17.302Z,4.32
2023-03-15T13:42:17.468Z,2.25
2023-03-15T13:45:09.089Z,2.88
2023-03-15T13:47:54.588Z,4.35
2023-03-15T13:50:40.819Z,3.22
2023-03-15T13:53:43.154Z,3.60
2023-03-15T13:56:48.922Z,4.18
2023-03-15T13:59:39.854Z,3.63
2023-03-15T14:02:55.300Z,6.07
2023-03-15T14:05:50.875Z,4.47
2023-03-15T14:08:39.235Z,5.80
2023-03-15T14:11:24.601Z,4.18
2023-03-15T14:14:26.919Z,2.70
2023-03-15T14:17:50.842Z,5.30
2023-03-15T14:20:45.539Z,2.92
2023-03-15T14:23:32.276Z,3.30
2023-03-15T14:26:28.773Z,5.60
2023-03-15T14:29:25.966Z,2.05
2023-03-15T14:32:27.352Z,2.72
2023-03-15T14:35:31.575Z,2.03
2023-03-15T14:38:24.101Z,3.83
2023-03-15T14:41:28.041Z,1.48
2023-03-15T14:44:13.787Z,2.17
2023-03-15T14:46:59.736Z,4.72
2023-03-15T14:49:46.215Z,3.08
2023-03-15T14:52:33.086Z,6.07
2023-03-15T14:55:21.483Z,2.58
2023-03-15T14:58:33.264Z,5.28
2023-03-15T15:01:24.511Z,4.88
2023-03-15T15:04:12.013Z,5.10
2023-03-15T15:06:57.979Z,4.45
2023-03-15T15:09:48.428Z,4.20
2023-03-15T15:12:33.854Z,2.55
2023-03-15T15:15:21.650Z,2.10
2023-03-15T15:18:07.372Z,4.00
2023-03-15T15:20:55.928Z,4.95
2023-03-15T15:23:57.275Z,3.08
2023-03-15T15:26:44.859Z,3.20
2023-03-15T15:29:30.513Z,3.78
2023-03-15T15:32:16.228Z,4.85
2023-03-15T15:35:02.516Z,6.22
2023-03-15T15:37:50.211Z,4.75
2023-03-15T15:40:37.025Z,5.40
2023-03-15T15:43:22.437Z,11.32
2023-03-15T15:46:11.337Z,4.18
2023-03-15T15:48:56.947Z,3.65
2023-03-15T15:51:49.890Z,5.05
2023-03-15T15:54:36.233Z,11.85
2023-03-15T15:57:22.501Z,2.80
2023-03-15T16:00:14.026Z,3.53
2023-03-15T16:02:59.858Z,7.55
2023-03-15T16:05:45.861Z,4.40
2023-03-15T16:08:37.297Z,4.55
2023-03-15T16:11:23.395Z,5.63
2023-03-15T16:14:11.784Z,6.10
2023-03-15T16:16:56.984Z,4.07
2023-03-15T16:19:42.667Z,2.45
2023-03-15T16:22:29.222Z,6.57
2023-03-15T16:25:19.397Z,10.05
2023-03-15T16:28:07.821Z,5.93
2023-03-15T16:30:53.518Z,4.18
2023-03-15T16:33:39.269Z,7.38
2023-03-15T16:36:27.823Z,5.55
2023-03-15T16:39:15.239Z,7.15
2023-03-15T16:42:00.858Z,4.43
2023-03-15T16:44:46.922Z,5.05
2023-03-15T16:47:32.337Z,7.93
2023-03-15T16:50:18.669Z,9.38
2023-03-15T16:53:07.126Z,6.38
2023-03-15T16:55:52.527Z,5.40
2023-03-15T16:58:38.287Z,6.78
2023-03-15T17:01:26.037Z,8.02
2023-03-15T17:04:13.835Z,11.25
2023-03-15T17:06:59.360Z,6.32
2023-03-15T17:09:47.549Z,8.07
2023-03-15T17:12:34.078Z,12.27
2023-03-15T17:15:23.974Z,5.18
2023-03-15T17:18:18.432Z,8.27
2023-03-15T17:21:05.025Z,9.88
2023-03-15T17:23:52.005Z,8.45
2023-03-15T17:26:39.056Z,7.25
2023-03-15T17:29:26.810Z,5.15
2023-03-15T17:32:13.063Z,8.15
2023-03-15T17:34:59.072Z,10.65
2023-03-15T17:37:45.856Z,7.30
2023-03-15T17:40:33.882Z,10.55
2023-03-15T17:43:20.476Z,8.75
2023-03-15T17:46:06.148Z,8.18
2023-03-15T17:48:51.777Z,9.63
2023-03-15T17:51:38.948Z,7.05
2023-03-15T17:54:27.050Z,9.13
2023-03-15T17:57:12.908Z,5.10
2023-03-15T17:59:58.452Z,8.00
2023-03-15T18:02:49.836Z,8.23
2023-03-15T18:05:40.768Z,13.77
2023-03-15T18:08:26.537Z,10.00
2023-03-15T18:11:27.861Z,7.60
2023-03-15T18:14:18.114Z,8.27
2023-03-15T18:17:07.995Z,5.90
2023-03-15T18:19:53.786Z,7.85
2023-03-15T18:22:42.954Z,7.78
2023-03-15T18:25:33.240Z,8.52
2023-03-15T18:28:18.737Z,8.10
2023-03-15T18:31:05.113Z,7.80
2023-03-15T18:33:53.956Z,9.93
2023-03-15T18:36:39.663Z,8.48
2023-03-15T18:39:28.145Z,13.57
2023-03-15T18:42:15.091Z,7.78
2023-03-15T18:45:00.790Z,8.10
2023-03-15T18:47:47.037Z,9.57
2023-03-15T18:50:33.897Z,12.07
2023-03-15T18:53:19.844Z,8.20
2023-03-15T18:56:06.017Z,7.78
2023-03-15T18:58:52.478Z,11.07
2023-03-15T19:01:38.406Z,9.38
2023-03-15T19:04:23.683Z,10.20
2023-03-15T19:07:09.202Z,9.93
2023-03-15T19:09:55.109Z,10.30
2023-03-15T19:12:41.578Z,9.07
2023-03-15T19:15:26.854Z,4.28
2023-03-15T19:18:12.746Z,7.60
2023-03-15T19:20:58.671Z,10.18
2023-03-15T19:23:44.723Z,8.15
2023-03-15T19:26:30.224Z,10.13
2023-03-15T19:29:15.925Z,17.80
2023-03-15T19:32:01.446Z,14.10
2023-03-15T19:34:47.317Z,7.60
2023-03-15T19:37:32.968Z,10.45
2023-03-15T19:40:19.668Z,15.63
2023-03-15T19:43:05.742Z,15.27
2023-03-15T19:45:51.798Z,12.10
2023-03-15T19:48:37.398Z,11.55
2023-03-15T19:51:23.156Z,11.30
2023-03-15T19:54:08.709Z,9.95
2023-03-15T19:56:54.622Z,9.13
2023-03-15T19:59:41.685Z,10.00
2023-03-15T20:02:27.508Z,12.85
2023-03-15T20:05:17.077Z,4.03
2023-03-15T20:08:03.695Z,11.98
2023-03-15T20:10:59.535Z,10.95
2023-03-15T20:13:45.804Z,9.68
2023-03-15T20:16:31.759Z,9.45
2023-03-15T20:19:17.396Z,8.02
2023-03-15T20:22:03.887Z,9.27
2023-03-15T20:24:50.636Z,12.25
2023-03-15T20:27:37.463Z,11.52
2023-03-15T20:30:23.928Z,10.40
2023-03-15T20:33:10.235Z,8.18
2023-03-15T20:35:55.749Z,5.60
2023-03-15T20:38:41.348Z,12.25
2023-03-15T20:41:27.093Z,8.13
2023-03-15T20:44:12.826Z,11.50
2023-03-15T20:46:59.538Z,11.25
2023-03-15T20:49:53.048Z,13.13
2023-03-15T20:52:49.511Z,7.28
2023-03-15T20:55:35.398Z,9.35
2023-03-15T20:58:21.450Z,8.82
2023-03-15T21:01:09.650Z,12.13
2023-03-15T21:03:57.083Z,7.82
2023-03-15T21:06:42.469Z,11.55
2023-03-15T21:09:28.057Z,14.20
2023-03-15T21:12:13.836Z,14.10
2023-03-15T21:14:59.072Z,10.40
2023-03-15T21:17:53.308Z,7.32
2023-03-15T21:20:40.289Z,7.78
2023-03-15T21:23:31.506Z,6.07
2023-03-15T21:26:17.432Z,9.98
2023-03-15T21:29:03.729Z,9.45
2023-03-15T21:31:49.983Z,9.20
2023-03-15T21:34:35.968Z,11.95
2023-03-15T21:37:21.481Z,11.30
2023-03-15T21:40:07.957Z,8.45
2023-03-15T21:43:07.936Z,15.35
2023-03-15T21:45:54.305Z,9.50
2023-03-15T21:48:41.962Z,8.48
2023-03-15T21:51:34.110Z,10.95
2023-03-15T21:54:19.803Z,8.95
2023-03-15T21:57:05.557Z,11.20
2023-03-15T21:59:51.657Z,6.78
2023-03-15T22:02:38.148Z,22.92
2023-03-15T22:05:23.734Z,5.22
2023-03-15T22:08:09.647Z,11.45
2023-03-15T22:10:57.356Z,13.93
2023-03-15T22:13:43.085Z,10.32
2023-03-15T22:16:28.630Z,7.72
2023-03-15T22:19:14.781Z,7.55
2023-03-15T22:22:01.087Z,7.53
2023-03-15T22:24:46.912Z,9.90
2023-03-15T22:27:32.759Z,9.10
2023-03-15T22:30:19.007Z,9.25
2023-03-15T22:33:05.204Z,7.70
2023-03-15T22:35:58.542Z,9.75
2023-03-15T22:38:50.405Z,9.40
2023-03-15T22:41:39.484Z,11.30
2023-03-15T22:44:25.103Z,11.70
2023-03-15T22:47:11.093Z,10.38
2023-03-15T22:49:59.595Z,7.82
2023-03-15T22:52:45.396Z,10.77
2023-03-15T22:55:33.516Z,10.77
2023-03-15T22:58:19.717Z,13.90
2023-03-15T23:01:05.492Z,9.70
2023-03-15T23:03:55.383Z,9.43
2023-03-15T23:06:41.145Z,10.00
2023-03-15T23:09:26.590Z,13.23
2023-03-15T23:12:12.368Z,9.07
2023-03-15T23:14:58.142Z,11.77
2023-03-15T23:17:46.761Z,6.63
2023-03-15T23:20:33.426Z,11.30
2023-03-15T23:23:19.105Z,14.40
2023-03-15T23:26:13.819Z,11.10
2023-03-15T23:29:13.639Z,10.57
2023-03-15T23:32:00.547Z,9.85
2023-03-15T23:34:46.204Z,11.80
2023-03-15T23:37:33.001Z,11.05
2023-03-15T23:40:20.372Z,9.60
2023-03-15T23:43:09.308Z,9.70
2023-03-15T23:46:07.181Z,9.02
2023-03-15T23:48:53.247Z,7.65
2023-03-15T23:51:38.817Z,12.07
2023-03-15T23:54:24.170Z,11.55
2023-03-15T23:57:12.536Z,9.63
2023-03-15T23:59:58.279Z,11.80
